sensor_id;sensor_type;location;lat;lon;timestamp;pressure;altitude;pressure_sealevel;temperature;humidity
38616;BME280;24370;51.986;4.666;2023-08-12T00:02:09;101808.25;;;27.74;56.20
38616;BME280;24370;51.986;4.666;2023-08-12T00:04:35;101811.03;;;27.73;56.08
38616;BME280;24370;51.986;4.666;2023-08-12T00:07:00;101798.75;;;28.60;53.73
38616;BME280;24370;51.986;4.666;2023-08-12T00:09:25;101796.97;;;28.98;52.52
38616;BME280;24370;51.986;4.666;2023-08-12T00:11:51;101791.34;;;29.14;51.86
38616;BME280;24370;51.986;4.666;2023-08-12T00:14:16;101788.78;;;29.37;51.45
38616;BME280;24370;51.986;4.666;2023-08-12T00:16:42;101784.75;;;29.18;51.63
38616;BME280;24370;51.986;4.666;2023-08-12T00:19:07;101782.97;;;28.69;53.58
38616;BME280;24370;51.986;4.666;2023-08-12T00:21:33;101771.09;;;28.84;52.53
38616;BME280;24370;51.986;4.666;2023-08-12T00:23:59;101781.78;;;28.97;52.14
38616;BME280;24370;51.986;4.666;2023-08-12T00:26:24;101789.91;;;28.84;51.88
38616;BME280;24370;51.986;4.666;2023-08-12T00:28:49;101785.06;;;29.26;51.17
38616;BME280;24370;51.986;4.666;2023-08-12T00:31:15;101777.72;;;28.91;51.93
38616;BME280;24370;51.986;4.666;2023-08-12T00:33:43;101777.50;;;28.94;51.72
38616;BME280;24370;51.986;4.666;2023-08-12T00:36:08;101774.31;;;28.89;52.15
38616;BME280;24370;51.986;4.666;2023-08-12T00:38:34;101773.84;;;28.96;51.78
38616;BME280;24370;51.986;4.666;2023-08-12T00:41:03;101767.31;;;29.11;50.89
38616;BME280;24370;51.986;4.666;2023-08-12T00:43:28;101764.38;;;29.27;51.21
38616;BME280;24370;51.986;4.666;2023-08-12T00:45:54;101759.53;;;29.19;51.39
38616;BME280;24370;51.986;4.666;2023-08-12T00:48:19;101768.75;;;28.67;52.43
38616;BME280;24370;51.986;4.666;2023-08-12T00:50:45;101760.44;;;29.07;51.67
38616;BME280;24370;51.986;4.666;2023-08-12T00:53:12;101752.06;;;28.74;52.57
38616;BME280;24370;51.986;4.666;2023-08-12T00:55:38;101748.97;;;28.68;53.03
38616;BME280;24370;51.986;4.666;2023-08-12T00:58:04;101748.34;;;29.25;51.82
38616;BME280;24370;51.986;4.666;2023-08-12T01:00:31;101746.25;;;29.05;52.73
38616;BME280;24370;51.986;4.666;2023-08-12T01:02:57;101744.88;;;28.49;54.27
38616;BME280;24370;51.986;4.666;2023-08-12T01:05:23;101739.03;;;28.81;54.06
38616;BME280;24370;51.986;4.666;2023-08-12T01:07:48;101739.63;;;28.98;53.18
38616;BME280;24370;51.986;4.666;2023-08-12T01:10:14;101745.28;;;29.54;51.31
38616;BME280;24370;51.986;4.666;2023-08-12T01:15:15;101746.72;;;29.23;51.86
38616;BME280;24370;51.986;4.666;2023-08-12T01:17:43;101735.91;;;29.36;52.10
38616;BME280;24370;51.986;4.666;2023-08-12T01:20:09;101733.59;;;29.42;51.68
38616;BME280;24370;51.986;4.666;2023-08-12T01:22:40;101726.66;;;29.51;51.62
38616;BME280;24370;51.986;4.666;2023-08-12T01:25:06;101730.16;;;29.76;51.04
38616;BME280;24370;51.986;4.666;2023-08-12T01:27:37;101719.84;;;29.70;51.06
38616;BME280;24370;51.986;4.666;2023-08-12T01:30:04;101719.56;;;29.50;51.73
38616;BME280;24370;51.986;4.666;2023-08-12T01:32:56;101712.31;;;29.51;51.93
38616;BME280;24370;51.986;4.666;2023-08-12T01:35:37;101717.56;;;29.41;52.25
38616;BME280;24370;51.986;4.666;2023-08-12T01:38:05;101711.66;;;29.83;51.33
38616;BME280;24370;51.986;4.666;2023-08-12T01:40:32;101707.34;;;29.57;51.81
38616;BME280;24370;51.986;4.666;2023-08-12T01:42:58;101702.28;;;29.88;50.76
38616;BME280;24370;51.986;4.666;2023-08-12T01:45:24;101704.41;;;29.60;51.87
38616;BME280;24370;51.986;4.666;2023-08-12T01:47:50;101708.97;;;29.36;52.53
38616;BME280;24370;51.986;4.666;2023-08-12T01:50:18;101703.13;;;29.89;51.03
38616;BME280;24370;51.986;4.666;2023-08-12T01:52:44;101705.41;;;29.71;51.52
38616;BME280;24370;51.986;4.666;2023-08-12T01:55:10;101699.34;;;30.03;50.57
38616;BME280;24370;51.986;4.666;2023-08-12T01:57:35;101699.09;;;29.48;52.65
38616;BME280;24370;51.986;4.666;2023-08-12T02:00:01;101696.06;;;29.52;52.23
38616;BME280;24370;51.986;4.666;2023-08-12T02:02:27;101698.19;;;29.24;53.31
38616;BME280;24370;51.986;4.666;2023-08-12T02:04:52;101688.06;;;29.15;53.82
38616;BME280;24370;51.986;4.666;2023-08-12T02:07:18;101687.06;;;29.05;54.36
38616;BME280;24370;51.986;4.666;2023-08-12T02:09:43;101690.84;;;29.26;53.48
38616;BME280;24370;51.986;4.666;2023-08-12T02:12:09;101683.34;;;29.54;52.47
38616;BME280;24370;51.986;4.666;2023-08-12T02:14:35;101688.97;;;29.51;53.11
38616;BME280;24370;51.986;4.666;2023-08-12T02:17:02;101683.22;;;29.56;52.67
38616;BME280;24370;51.986;4.666;2023-08-12T02:19:31;101673.56;;;29.65;52.79
38616;BME280;24370;51.986;4.666;2023-08-12T02:21:56;101678.28;;;29.38;53.17
38616;BME280;24370;51.986;4.666;2023-08-12T02:24:21;101670.34;;;28.88;55.15
38616;BME280;24370;51.986;4.666;2023-08-12T02:26:47;101672.31;;;29.46;53.51
38616;BME280;24370;51.986;4.666;2023-08-12T02:29:12;101674.19;;;29.68;52.84
38616;BME280;24370;51.986;4.666;2023-08-12T02:31:38;101675.44;;;29.28;54.15
38616;BME280;24370;51.986;4.666;2023-08-12T02:34:04;101668.53;;;29.71;52.80
38616;BME280;24370;51.986;4.666;2023-08-12T02:36:29;101668.78;;;28.97;54.89
38616;BME280;24370;51.986;4.666;2023-08-12T02:38:55;101663.97;;;29.49;53.88
38616;BME280;24370;51.986;4.666;2023-08-12T02:41:20;101661.59;;;29.33;54.26
38616;BME280;24370;51.986;4.666;2023-08-12T02:43:45;101660.06;;;29.18;54.75
38616;BME280;24370;51.986;4.666;2023-08-12T02:46:11;101658.56;;;29.26;55.01
38616;BME280;24370;51.986;4.666;2023-08-12T02:48:38;101656.50;;;29.06;56.06
38616;BME280;24370;51.986;4.666;2023-08-12T02:51:03;101662.09;;;29.03;57.11
38616;BME280;24370;51.986;4.666;2023-08-12T02:53:28;101654.53;;;29.32;55.81
38616;BME280;24370;51.986;4.666;2023-08-12T02:55:54;101647.31;;;29.33;55.98
38616;BME280;24370;51.986;4.666;2023-08-12T02:58:19;101643.06;;;29.17;56.52
38616;BME280;24370;51.986;4.666;2023-08-12T03:00:45;101636.81;;;29.52;55.24
38616;BME280;24370;51.986;4.666;2023-08-12T03:03:10;101629.94;;;29.48;55.54
38616;BME280;24370;51.986;4.666;2023-08-12T03:05:36;101631.16;;;29.33;55.97
38616;BME280;24370;51.986;4.666;2023-08-12T03:08:02;101624.31;;;29.40;55.65
38616;BME280;24370;51.986;4.666;2023-08-12T03:10:29;101627.25;;;29.37;55.80
38616;BME280;24370;51.986;4.666;2023-08-12T03:12:54;101629.22;;;29.35;56.54
38616;BME280;24370;51.986;4.666;2023-08-12T03:15:20;101628.94;;;29.02;56.74
38616;BME280;24370;51.986;4.666;2023-08-12T03:17:46;101614.31;;;28.58;58.37
38616;BME280;24370;51.986;4.666;2023-08-12T03:20:11;101619.94;;;28.79;57.91
38616;BME280;24370;51.986;4.666;2023-08-12T03:22:37;101615.47;;;28.67;59.04
38616;BME280;24370;51.986;4.666;2023-08-12T03:25:03;101610.13;;;28.78;59.02
38616;BME280;24370;51.986;4.666;2023-08-12T03:27:29;101593.84;;;29.04;58.22
38616;BME280;24370;51.986;4.666;2023-08-12T03:29:55;101589.94;;;29.08;57.88
38616;BME280;24370;51.986;4.666;2023-08-12T03:32:20;101594.13;;;29.23;57.37
38616;BME280;24370;51.986;4.666;2023-08-12T03:34:46;101599.72;;;28.98;57.83
38616;BME280;24370;51.986;4.666;2023-08-12T03:37:11;101607.03;;;28.96;58.34
38616;BME280;24370;51.986;4.666;2023-08-12T03:39:37;101619.22;;;28.40;60.69
38616;BME280;24370;51.986;4.666;2023-08-12T03:42:02;101612.41;;;28.47;60.05
38616;BME280;24370;51.986;4.666;2023-08-12T03:44:28;101608.00;;;28.94;58.90
38616;BME280;24370;51.986;4.666;2023-08-12T03:46:53;101609.19;;;28.90;59.21
38616;BME280;24370;51.986;4.666;2023-08-12T03:49:18;101607.41;;;28.67;59.47
38616;BME280;24370;51.986;4.666;2023-08-12T03:51:44;101598.84;;;29.33;57.34
38616;BME280;24370;51.986;4.666;2023-08-12T03:54:09;101589.81;;;29.45;57.11
38616;BME280;24370;51.986;4.666;2023-08-12T03:56:37;101580.69;;;29.23;57.08
38616;BME280;24370;51.986;4.666;2023-08-12T03:59:02;101583.59;;;29.09;57.33
38616;BME280;24370;51.986;4.666;2023-08-12T04:01:28;101583.69;;;29.43;56.86
38616;BME280;24370;51.986;4.666;2023-08-12T04:03:53;101583.69;;;29.43;57.06
38616;BME280;24370;51.986;4.666;2023-08-12T04:06:19;101581.25;;;29.51;56.56
38616;BME280;24370;51.986;4.666;2023-08-12T04:08:44;101577.81;;;29.26;57.41
38616;BME280;24370;51.986;4.666;2023-08-12T04:11:10;101565.56;;;29.34;57.74
38616;BME280;24370;51.986;4.666;2023-08-12T04:13:35;101563.63;;;29.47;56.83
38616;BME280;24370;51.986;4.666;2023-08-12T04:16:00;101558.34;;;29.45;56.69
38616;BME280;24370;51.986;4.666;2023-08-12T04:18:26;101549.69;;;29.76;56.03
38616;BME280;24370;51.986;4.666;2023-08-12T04:20:52;101543.19;;;29.67;55.69
38616;BME280;24370;51.986;4.666;2023-08-12T04:23:18;101543.31;;;29.54;55.92
38616;BME280;24370;51.986;4.666;2023-08-12T04:25:45;101533.22;;;29.22;57.87
38616;BME280;24370;51.986;4.666;2023-08-12T04:28:11;101540.00;;;28.81;58.39
38616;BME280;24370;51.986;4.666;2023-08-12T04:30:45;101536.13;;;28.97;58.03
38616;BME280;24370;51.986;4.666;2023-08-12T04:33:12;101533.81;;;28.68;58.95
38616;BME280;24370;51.986;4.666;2023-08-12T04:35:38;101535.16;;;29.20;57.64
38616;BME280;24370;51.986;4.666;2023-08-12T04:38:04;101536.09;;;28.61;58.99
38616;BME280;24370;51.986;4.666;2023-08-12T04:40:29;101532.72;;;29.06;58.50
38616;BME280;24370;51.986;4.666;2023-08-12T04:42:55;101532.94;;;29.03;58.11
38616;BME280;24370;51.986;4.666;2023-08-12T04:45:20;101527.25;;;28.83;58.72
38616;BME280;24370;51.986;4.666;2023-08-12T04:47:45;101524.69;;;28.82;59.91
38616;BME280;24370;51.986;4.666;2023-08-12T04:50:11;101536.56;;;28.31;60.82
38616;BME280;24370;51.986;4.666;2023-08-12T04:52:36;101531.78;;;28.34;61.00
38616;BME280;24370;51.986;4.666;2023-08-12T04:55:02;101525.59;;;28.93;59.62
38616;BME280;24370;51.986;4.666;2023-08-12T04:57:28;101532.44;;;28.38;61.99
38616;BME280;24370;51.986;4.666;2023-08-12T04:59:54;101522.59;;;28.50;60.92
38616;BME280;24370;51.986;4.666;2023-08-12T05:02:20;101523.13;;;28.31;62.15
38616;BME280;24370;51.986;4.666;2023-08-12T05:04:50;101526.34;;;27.86;64.90
38616;BME280;24370;51.986;4.666;2023-08-12T05:07:16;101524.66;;;28.46;62.48
38616;BME280;24370;51.986;4.666;2023-08-12T05:09:41;101518.94;;;28.26;63.71
38616;BME280;24370;51.986;4.666;2023-08-12T05:12:09;101516.88;;;28.06;64.35
38616;BME280;24370;51.986;4.666;2023-08-12T05:14:35;101513.97;;;27.46;67.07
38616;BME280;24370;51.986;4.666;2023-08-12T05:17:00;101519.84;;;27.77;66.79
38616;BME280;24370;51.986;4.666;2023-08-12T05:19:26;101519.84;;;27.25;68.71
38616;BME280;24370;51.986;4.666;2023-08-12T05:21:51;101525.94;;;27.15;69.62
38616;BME280;24370;51.986;4.666;2023-08-12T05:24:16;101511.75;;;28.03;65.40
38616;BME280;24370;51.986;4.666;2023-08-12T05:26:42;101516.34;;;28.49;61.87
38616;BME280;24370;51.986;4.666;2023-08-12T05:29:07;101517.94;;;28.65;60.87
38616;BME280;24370;51.986;4.666;2023-08-12T05:31:33;101514.09;;;28.91;60.26
38616;BME280;24370;51.986;4.666;2023-08-12T05:33:58;101525.91;;;28.53;62.22
38616;BME280;24370;51.986;4.666;2023-08-12T05:36:24;101533.28;;;28.38;62.97
38616;BME280;24370;51.986;4.666;2023-08-12T05:38:49;101545.28;;;27.84;66.13
38616;BME280;24370;51.986;4.666;2023-08-12T05:41:14;101551.03;;;26.61;74.62
38616;BME280;24370;51.986;4.666;2023-08-12T05:43:40;101553.34;;;27.07;72.59
38616;BME280;24370;51.986;4.666;2023-08-12T05:46:05;101562.00;;;26.43;76.85
38616;BME280;24370;51.986;4.666;2023-08-12T05:48:31;101550.25;;;27.39;73.56
38616;BME280;24370;51.986;4.666;2023-08-12T05:50:56;101555.22;;;27.45;72.81
38616;BME280;24370;51.986;4.666;2023-08-12T05:53:22;101532.38;;;27.76;69.68
38616;BME280;24370;51.986;4.666;2023-08-12T05:55:47;101515.69;;;28.10;67.34
38616;BME280;24370;51.986;4.666;2023-08-12T05:58:13;101514.72;;;28.11;66.19
38616;BME280;24370;51.986;4.666;2023-08-12T06:00:38;101528.09;;;26.69;72.97
38616;BME280;24370;51.986;4.666;2023-08-12T06:03:04;101519.09;;;27.11;72.56
38616;BME280;24370;51.986;4.666;2023-08-12T06:05:29;101509.72;;;27.81;67.95
38616;BME280;24370;51.986;4.666;2023-08-12T06:07:55;101515.19;;;27.79;69.02
38616;BME280;24370;51.986;4.666;2023-08-12T06:10:20;101513.84;;;28.10;66.33
38616;BME280;24370;51.986;4.666;2023-08-12T06:12:45;101516.31;;;27.64;69.59
38616;BME280;24370;51.986;4.666;2023-08-12T06:15:11;101523.91;;;26.92;73.71
38616;BME280;24370;51.986;4.666;2023-08-12T06:17:36;101515.25;;;27.40;70.07
38616;BME280;24370;51.986;4.666;2023-08-12T06:20:02;101519.44;;;27.32;70.18
38616;BME280;24370;51.986;4.666;2023-08-12T06:22:27;101518.34;;;27.34;71.09
38616;BME280;24370;51.986;4.666;2023-08-12T06:24:53;101523.28;;;27.15;71.95
38616;BME280;24370;51.986;4.666;2023-08-12T06:27:18;101521.44;;;27.80;69.04
38616;BME280;24370;51.986;4.666;2023-08-12T06:29:46;101509.66;;;27.31;71.56
38616;BME280;24370;51.986;4.666;2023-08-12T06:32:12;101516.41;;;26.57;76.05
38616;BME280;24370;51.986;4.666;2023-08-12T06:34:38;101506.41;;;27.77;69.32
38616;BME280;24370;51.986;4.666;2023-08-12T06:37:03;101505.34;;;27.67;70.44
38616;BME280;24370;51.986;4.666;2023-08-12T06:39:29;101512.09;;;26.42;74.93
38616;BME280;24370;51.986;4.666;2023-08-12T06:41:54;101514.41;;;26.34;80.22
38616;BME280;24370;51.986;4.666;2023-08-12T06:44:21;101507.56;;;26.70;77.14
38616;BME280;24370;51.986;4.666;2023-08-12T06:46:46;101509.63;;;27.69;70.79
38616;BME280;24370;51.986;4.666;2023-08-12T06:49:12;101498.94;;;27.56;70.19
38616;BME280;24370;51.986;4.666;2023-08-12T06:51:37;101506.06;;;26.38;77.52
38616;BME280;24370;51.986;4.666;2023-08-12T06:54:03;101502.91;;;27.12;73.95
38616;BME280;24370;51.986;4.666;2023-08-12T06:56:29;101503.22;;;27.46;73.09
38616;BME280;24370;51.986;4.666;2023-08-12T06:58:56;101510.47;;;26.12;79.47
38616;BME280;24370;51.986;4.666;2023-08-12T07:01:21;101518.75;;;26.49;81.97
38616;BME280;24370;51.986;4.666;2023-08-12T07:03:47;101512.78;;;26.58;81.62
38616;BME280;24370;51.986;4.666;2023-08-12T07:06:12;101518.16;;;25.46;86.24
38616;BME280;24370;51.986;4.666;2023-08-12T07:08:38;101515.97;;;26.64;82.40
38616;BME280;24370;51.986;4.666;2023-08-12T07:11:03;101523.69;;;26.55;80.99
38616;BME280;24370;51.986;4.666;2023-08-12T07:13:29;101520.38;;;26.52;82.23
38616;BME280;24370;51.986;4.666;2023-08-12T07:15:55;101505.22;;;27.81;72.69
38616;BME280;24370;51.986;4.666;2023-08-12T07:18:21;101524.41;;;26.72;79.98
38616;BME280;24370;51.986;4.666;2023-08-12T07:20:48;101515.19;;;26.76;80.66
38616;BME280;24370;51.986;4.666;2023-08-12T07:23:13;101510.88;;;27.89;72.22
38616;BME280;24370;51.986;4.666;2023-08-12T07:25:41;101517.72;;;26.65;78.94
38616;BME280;24370;51.986;4.666;2023-08-12T07:28:07;101509.22;;;27.63;74.87
38616;BME280;24370;51.986;4.666;2023-08-12T07:30:38;101546.25;;;27.06;75.01
38616;BME280;24370;51.986;4.666;2023-08-12T07:33:04;101560.13;;;24.22;78.16
38616;BME280;24370;51.986;4.666;2023-08-12T07:35:30;101550.75;;;24.15;78.60
38616;BME280;24370;51.986;4.666;2023-08-12T07:37:55;101548.72;;;24.67;75.29
38616;BME280;24370;51.986;4.666;2023-08-12T07:40:21;101542.72;;;23.99;79.24
38616;BME280;24370;51.986;4.666;2023-08-12T07:42:46;101546.53;;;24.58;75.95
38616;BME280;24370;51.986;4.666;2023-08-12T07:45:12;101542.31;;;24.07;79.21
38616;BME280;24370;51.986;4.666;2023-08-12T07:47:38;101554.16;;;24.49;78.94
38616;BME280;24370;51.986;4.666;2023-08-12T07:50:04;101550.63;;;24.33;77.48
38616;BME280;24370;51.986;4.666;2023-08-12T07:52:30;101544.53;;;23.99;79.63
38616;BME280;24370;51.986;4.666;2023-08-12T07:54:55;101559.06;;;24.41;73.48
38616;BME280;24370;51.986;4.666;2023-08-12T07:57:21;101566.31;;;24.39;72.30
38616;BME280;24370;51.986;4.666;2023-08-12T07:59:52;101567.69;;;24.46;75.42
38616;BME280;24370;51.986;4.666;2023-08-12T08:02:17;101576.88;;;24.88;73.02
38616;BME280;24370;51.986;4.666;2023-08-12T08:04:43;101575.00;;;24.59;73.48
38616;BME280;24370;51.986;4.666;2023-08-12T08:07:08;101577.63;;;24.44;75.00
38616;BME280;24370;51.986;4.666;2023-08-12T08:09:36;101569.16;;;24.04;76.58
38616;BME280;24370;51.986;4.666;2023-08-12T08:12:02;101572.59;;;24.38;77.12
38616;BME280;24370;51.986;4.666;2023-08-12T08:14:28;101562.19;;;24.65;74.56
38616;BME280;24370;51.986;4.666;2023-08-12T08:16:53;101571.03;;;24.66;76.82
38616;BME280;24370;51.986;4.666;2023-08-12T08:19:19;101569.75;;;25.03;73.01
38616;BME280;24370;51.986;4.666;2023-08-12T08:21:44;101570.69;;;25.33;72.19
38616;BME280;24370;51.986;4.666;2023-08-12T08:24:10;101563.84;;;25.43;71.34
38616;BME280;24370;51.986;4.666;2023-08-12T08:26:38;101564.03;;;25.69;69.63
38616;BME280;24370;51.986;4.666;2023-08-12T08:29:04;101573.38;;;25.02;71.59
38616;BME280;24370;51.986;4.666;2023-08-12T08:31:29;101576.16;;;25.01;75.10
38616;BME280;24370;51.986;4.666;2023-08-12T08:33:55;101570.53;;;25.79;70.40
38616;BME280;24370;51.986;4.666;2023-08-12T08:36:20;101574.19;;;25.64;70.42
38616;BME280;24370;51.986;4.666;2023-08-12T08:38:45;101565.72;;;26.28;68.63
38616;BME280;24370;51.986;4.666;2023-08-12T08:41:11;101579.09;;;25.27;73.12
38616;BME280;24370;51.986;4.666;2023-08-12T08:43:37;101568.53;;;25.23;70.37
38616;BME280;24370;51.986;4.666;2023-08-12T08:46:07;101562.03;;;25.72;73.53
38616;BME280;24370;51.986;4.666;2023-08-12T08:48:33;101556.16;;;25.95;70.54
38616;BME280;24370;51.986;4.666;2023-08-12T08:51:00;101555.13;;;26.94;65.06
38616;BME280;24370;51.986;4.666;2023-08-12T08:53:26;101549.25;;;27.01;64.15
38616;BME280;24370;51.986;4.666;2023-08-12T08:55:52;101555.41;;;27.42;62.11
38616;BME280;24370;51.986;4.666;2023-08-12T08:58:18;101552.88;;;28.65;60.35
38616;BME280;24370;51.986;4.666;2023-08-12T09:00:43;101559.69;;;29.28;55.97
38616;BME280;24370;51.986;4.666;2023-08-12T09:03:10;101551.75;;;29.95;51.33
38616;BME280;24370;51.986;4.666;2023-08-12T09:05:36;101560.09;;;28.03;57.05
38616;BME280;24370;51.986;4.666;2023-08-12T09:08:04;101552.28;;;29.08;56.61
38616;BME280;24370;51.986;4.666;2023-08-12T09:10:32;101560.19;;;30.57;50.37
38616;BME280;24370;51.986;4.666;2023-08-12T09:13:01;101556.66;;;30.56;51.09
38616;BME280;24370;51.986;4.666;2023-08-12T09:15:27;101565.56;;;30.02;50.74
38616;BME280;24370;51.986;4.666;2023-08-12T09:17:52;101571.59;;;30.60;49.50
38616;BME280;24370;51.986;4.666;2023-08-12T09:20:18;101576.28;;;31.01;47.59
38616;BME280;24370;51.986;4.666;2023-08-12T09:22:44;101575.94;;;31.88;45.98
38616;BME280;24370;51.986;4.666;2023-08-12T09:25:10;101586.47;;;32.32;46.06
38616;BME280;24370;51.986;4.666;2023-08-12T09:27:36;101588.56;;;31.05;44.48
38616;BME280;24370;51.986;4.666;2023-08-12T09:30:04;101577.84;;;31.97;44.82
38616;BME280;24370;51.986;4.666;2023-08-12T09:32:30;101571.84;;;31.11;44.31
38616;BME280;24370;51.986;4.666;2023-08-12T09:34:56;101593.34;;;28.99;47.49
38616;BME280;24370;51.986;4.666;2023-08-12T09:37:23;101594.69;;;30.31;46.26
38616;BME280;24370;51.986;4.666;2023-08-12T09:39:49;101597.56;;;28.17;49.69
38616;BME280;24370;51.986;4.666;2023-08-12T09:42:16;101600.16;;;28.91;49.99
38616;BME280;24370;51.986;4.666;2023-08-12T09:44:42;101591.03;;;28.33;50.32
38616;BME280;24370;51.986;4.666;2023-08-12T09:47:08;101591.84;;;30.32;47.17
38616;BME280;24370;51.986;4.666;2023-08-12T09:49:38;101603.75;;;28.68;48.02
38616;BME280;24370;51.986;4.666;2023-08-12T09:52:04;101595.88;;;28.89;45.94
38616;BME280;24370;51.986;4.666;2023-08-12T09:54:34;101596.41;;;29.05;44.80
38616;BME280;24370;51.986;4.666;2023-08-12T09:57:01;101599.72;;;28.12;45.98
38616;BME280;24370;51.986;4.666;2023-08-12T09:59:31;101598.97;;;27.33;47.96
38616;BME280;24370;51.986;4.666;2023-08-12T10:01:57;101604.16;;;28.00;47.23
38616;BME280;24370;51.986;4.666;2023-08-12T10:04:27;101606.75;;;28.87;43.88
38616;BME280;24370;51.986;4.666;2023-08-12T10:06:52;101601.38;;;27.63;44.64
38616;BME280;24370;51.986;4.666;2023-08-12T10:09:19;101593.91;;;28.18;45.21
38616;BME280;24370;51.986;4.666;2023-08-12T10:11:45;101587.41;;;28.34;46.66
38616;BME280;24370;51.986;4.666;2023-08-12T10:14:12;101592.44;;;28.63;46.24
38616;BME280;24370;51.986;4.666;2023-08-12T10:16:38;101602.19;;;29.12;45.88
38616;BME280;24370;51.986;4.666;2023-08-12T10:19:05;101597.94;;;27.74;48.04
38616;BME280;24370;51.986;4.666;2023-08-12T10:21:31;101592.63;;;28.48;46.23
38616;BME280;24370;51.986;4.666;2023-08-12T10:24:00;101596.78;;;28.28;47.23
38616;BME280;24370;51.986;4.666;2023-08-12T10:26:26;101602.00;;;27.54;48.95
38616;BME280;24370;51.986;4.666;2023-08-12T10:28:51;101590.41;;;28.66;46.89
38616;BME280;24370;51.986;4.666;2023-08-12T10:31:18;101605.31;;;28.94;48.42
38616;BME280;24370;51.986;4.666;2023-08-12T10:33:44;101605.88;;;28.63;46.83
38616;BME280;24370;51.986;4.666;2023-08-12T10:36:10;101608.88;;;28.71;49.05
38616;BME280;24370;51.986;4.666;2023-08-12T10:38:35;101602.69;;;28.20;49.90
38616;BME280;24370;51.986;4.666;2023-08-12T10:41:21;101599.84;;;29.43;47.68
38616;BME280;24370;51.986;4.666;2023-08-12T10:43:54;101595.78;;;29.26;45.98
38616;BME280;24370;51.986;4.666;2023-08-12T10:46:35;101596.41;;;28.08;46.04
38616;BME280;24370;51.986;4.666;2023-08-12T10:49:08;101598.59;;;29.36;44.44
38616;BME280;24370;51.986;4.666;2023-08-12T10:54:26;101590.56;;;28.76;45.86
38616;BME280;24370;51.986;4.666;2023-08-12T11:02:17;101588.72;;;29.01;44.98
38616;BME280;24370;51.986;4.666;2023-08-12T11:04:43;101591.50;;;28.64;45.21
38616;BME280;24370;51.986;4.666;2023-08-12T11:07:17;101585.00;;;29.37;44.65
38616;BME280;24370;51.986;4.666;2023-08-12T11:09:44;101595.19;;;29.34;43.99
38616;BME280;24370;51.986;4.666;2023-08-12T11:12:10;101587.50;;;29.05;44.29
38616;BME280;24370;51.986;4.666;2023-08-12T11:14:54;101600.28;;;27.40;46.35
38616;BME280;24370;51.986;4.666;2023-08-12T11:17:35;101584.69;;;28.34;46.32
38616;BME280;24370;51.986;4.666;2023-08-12T11:20:02;101597.63;;;29.48;44.62
38616;BME280;24370;51.986;4.666;2023-08-12T11:22:30;101590.19;;;29.40;44.36
38616;BME280;24370;51.986;4.666;2023-08-12T11:24:56;101585.19;;;29.47;43.84
38616;BME280;24370;51.986;4.666;2023-08-12T11:27:22;101585.03;;;31.04;41.96
38616;BME280;24370;51.986;4.666;2023-08-12T11:29:49;101586.66;;;29.74;43.72
38616;BME280;24370;51.986;4.666;2023-08-12T11:32:16;101586.38;;;29.77;43.83
38616;BME280;24370;51.986;4.666;2023-08-12T11:34:42;101594.63;;;29.17;42.99
38616;BME280;24370;51.986;4.666;2023-08-12T11:37:08;101581.03;;;30.00;42.12
38616;BME280;24370;51.986;4.666;2023-08-12T11:39:35;101591.44;;;30.04;40.31
38616;BME280;24370;51.986;4.666;2023-08-12T11:42:00;101581.50;;;32.47;38.71
38616;BME280;24370;51.986;4.666;2023-08-12T11:44:26;101582.03;;;30.86;40.53
38616;BME280;24370;51.986;4.666;2023-08-12T11:46:51;101579.25;;;32.62;38.44
38616;BME280;24370;51.986;4.666;2023-08-12T11:49:17;101587.19;;;31.32;39.08
38616;BME280;24370;51.986;4.666;2023-08-12T11:51:44;101584.81;;;31.17;39.20
38616;BME280;24370;51.986;4.666;2023-08-12T11:54:12;101593.44;;;30.78;40.47
38616;BME280;24370;51.986;4.666;2023-08-12T11:56:38;101586.47;;;30.76;40.75
38616;BME280;24370;51.986;4.666;2023-08-12T11:59:03;101596.16;;;29.33;39.59
38616;BME280;24370;51.986;4.666;2023-08-12T12:01:31;101600.84;;;29.53;38.32
38616;BME280;24370;51.986;4.666;2023-08-12T12:03:59;101590.53;;;31.45;37.60
38616;BME280;24370;51.986;4.666;2023-08-12T12:06:36;101592.28;;;29.93;37.42
38616;BME280;24370;51.986;4.666;2023-08-12T12:09:06;101599.50;;;29.82;38.66
38616;BME280;24370;51.986;4.666;2023-08-12T12:11:38;101597.47;;;31.17;37.38
38616;BME280;24370;51.986;4.666;2023-08-12T12:14:05;101597.16;;;30.22;38.50
38616;BME280;24370;51.986;4.666;2023-08-12T12:16:41;101590.16;;;30.31;39.05
38616;BME280;24370;51.986;4.666;2023-08-12T12:19:14;101593.28;;;30.04;37.25
38616;BME280;24370;51.986;4.666;2023-08-12T12:21:46;101589.28;;;30.42;36.72
38616;BME280;24370;51.986;4.666;2023-08-12T12:24:11;101598.72;;;30.80;37.82
38616;BME280;24370;51.986;4.666;2023-08-12T12:26:37;101607.22;;;30.96;38.41
38616;BME280;24370;51.986;4.666;2023-08-12T12:29:03;101613.88;;;31.77;36.53
38616;BME280;24370;51.986;4.666;2023-08-12T12:31:29;101602.94;;;31.26;37.61
38616;BME280;24370;51.986;4.666;2023-08-12T12:33:55;101612.88;;;30.93;37.95
38616;BME280;24370;51.986;4.666;2023-08-12T12:36:21;101619.22;;;29.93;39.44
38616;BME280;24370;51.986;4.666;2023-08-12T12:38:46;101618.75;;;30.00;38.89
38616;BME280;24370;51.986;4.666;2023-08-12T12:41:11;101625.34;;;30.07;38.28
38616;BME280;24370;51.986;4.666;2023-08-12T12:43:37;101625.91;;;30.56;39.55
38616;BME280;24370;51.986;4.666;2023-08-12T12:46:02;101619.50;;;29.90;39.98
38616;BME280;24370;51.986;4.666;2023-08-12T12:48:27;101615.94;;;30.68;40.03
38616;BME280;24370;51.986;4.666;2023-08-12T12:50:53;101622.06;;;31.02;39.72
38616;BME280;24370;51.986;4.666;2023-08-12T12:53:18;101620.78;;;31.18;39.81
38616;BME280;24370;51.986;4.666;2023-08-12T12:55:44;101627.28;;;31.15;39.77
38616;BME280;24370;51.986;4.666;2023-08-12T12:58:09;101638.88;;;31.06;41.45